Monday, July 23, 2018, 7:40 AM EDT
Back to Local

KSMQ, Somerville Somerset Airport

Location: Bedminster, NJ, United States Lat: 40.617
Local Time: 7:40 AM EDT (11:40 GMT) Lon: -74.667
Time Zone: US/Eastern Elev: 104 ft

Show me the last for .
Show Decoded

2018-07-23 07:15 METAR KSMQ 231115Z AUTO 15005KT 5SM -RA BR BKN013 BKN026 OVC065 23/23 A3002 RMK
                 AO2 P0001 T02330233 =
2018-07-23 06:56 METAR KSMQ 231056Z AUTO 15004KT 3SM -RA BR SCT013 SCT018 OVC026 23/23 A3001 RMK
                 AO2 P0000 T02280228 =
2018-07-23 06:53 METAR KSMQ 231053Z AUTO 15004KT 3/4SM -RA BR FEW010 BKN024 OVC037 23/23 A3001
                 RMK AO2 VIS 1/4V5 SLP161 P0048 T02280228 =
2018-07-23 06:44 METAR KSMQ 231044Z AUTO 15010G16KT 1/2SM +RA FG SCT012 OVC024 23/23 A3001 RMK
                 AO2 P0043 T02330233 =
2018-07-23 06:27 METAR KSMQ 231027Z AUTO 16009G15KT 1 3/4SM +RA BR SCT010 BKN014 OVC033 24/24
                 A3001 RMK AO2 P0015 T02390239 =
2018-07-23 06:24 METAR KSMQ 231024Z AUTO 17007KT 3SM RA BR BKN012 OVC040 24/24 A3001 RMK AO2
                 P0009 T02390239 =
2018-07-23 06:14 METAR KSMQ 231014Z AUTO 15005KT 4SM -RA BR SCT014 BKN024 OVC040 24/24 A3000 RMK
                 AO2 P0005 T02390239 =
2018-07-23 06:04 METAR KSMQ 231004Z AUTO 16005KT 2 1/2SM RA BR SCT018 BKN040 OVC050 24/24 A3000
                 RMK AO2 P0004 T02390239 =
2018-07-23 06:01 METAR KSMQ 231001Z AUTO VRB03KT 3SM +RA BR SCT013 BKN024 OVC050 24/24 A2999 RMK
                 AO2 P0003 T02390239 =
2018-07-23 05:53 METAR KSMQ 230953Z AUTO 00000KT 6SM -RA BR BKN011 BKN024 OVC055 24/24 A2999 RMK
                 AO2 RAB44 SLP154 P0001 T02440244 =
2018-07-23 05:21 METAR KSMQ 230921Z AUTO 00000KT 8SM OVC013 24/24 A2998 RMK AO2 T02440244 =
2018-07-23 04:53 METAR KSMQ 230853Z AUTO 00000KT 7SM BKN016 OVC024 24/24 A2999 RMK AO2 SLP153
                 60000 T02390239 53003 =
2018-07-23 03:53 METAR KSMQ 230753Z AUTO 00000KT 7SM BKN019 OVC025 24/24 A2997 RMK AO2 RAB36E46
                 SLP148 P0000 T02390239 =
2018-07-23 03:42 METAR KSMQ 230742Z AUTO 00000KT 7SM -RA BKN021 OVC029 24/24 A2997 RMK AO2 RAB36
                 P0000 T02390239 =
2018-07-23 03:22 METAR KSMQ 230722Z AUTO 00000KT 8SM SCT020 BKN030 OVC035 24/24 A2997 RMK AO2
                 T02390239 =
2018-07-23 02:53 METAR KSMQ 230653Z AUTO VRB05KT 8SM BKN019 OVC026 24/24 A2998 RMK AO2 SLP149
                 T02440244 =
2018-07-23 02:12 METAR KSMQ 230612Z AUTO 15005KT 7SM SCT018 BKN023 OVC031 24/24 A2998 RMK AO2
                 T02440244 =
2018-07-23 01:53 METAR KSMQ 230553Z AUTO VRB03KT 7SM FEW018 BKN030 OVC075 24/24 A2998 RMK AO2
                 SLP150 60027 T02440244 10244 20233 58001 =
2018-07-23 01:45 METAR KSMQ 230545Z AUTO 16004KT 7SM SCT018 SCT031 OVC075 24/24 A2998 RMK AO2
                 T02440244 =
2018-07-23 00:53 METAR KSMQ 230453Z AUTO 15004KT 7SM BKN021 OVC029 24/24 A2999 RMK AO2 RAE19
                 SLP153 P0000 T02440244 403000200 =
2018-07-23 00:33 METAR KSMQ 230433Z AUTO VRB03KT 6SM BR BKN016 OVC021 24/24 A2999 RMK AO2 RAE19
                 P0000 T02440244 =
2018-07-22 23:53 METAR KSMQ 230353Z AUTO 00000KT 5SM -RA BR BKN013 OVC021 24/24 A2998 RMK AO2
                 RAB0255 SLP151 P0025 T02440244 =
2018-07-22 23:50 METAR KSMQ 230350Z AUTO 14003KT 5SM -RA BR BKN010 BKN016 OVC021 24/24 A2998 RMK
                 AO2 RAB0255 P0025 =
2018-07-22 23:43 METAR KSMQ 230343Z AUTO 00000KT 2SM -RA BR BKN010 BKN015 OVC021 24/24 A2998 RMK
                 AO2 RAB0255 P0025 T02440244 =
2018-07-22 23:19 METAR KSMQ 230319Z AUTO 00000KT 1 3/4SM +RA BR SCT015 BKN020 OVC025 24/24 A2998
                 RMK AO2 RAB0255 P0008 T02440244 =
2018-07-22 22:53 METAR KSMQ 230253Z AUTO 00000KT 7SM SCT015 BKN020 OVC027 24/24 A2998 RMK AO2
                 RAB38E47 SLP149 P0000 60002 T02440244 51012 =
2018-07-22 21:53 METAR KSMQ 230153Z AUTO 00000KT 8SM BKN015 OVC025 24/24 A2998 RMK AO2 RAE22
                 SLP150 P0001 T02390239 =
2018-07-22 21:25 METAR KSMQ 230125Z AUTO 00000KT 8SM SCT013 OVC025 23/23 A2997 RMK AO2 RAE22
                 P0001 T02330233 =
2018-07-22 20:53 METAR KSMQ 230053Z AUTO VRB03KT 7SM -RA OVC010 24/24 A2996 RMK AO2 RAB05 SLP144
                 P0001 T02390239 =
2018-07-22 19:53 METAR KSMQ 222353Z AUTO 00000KT 7SM OVC014 24/24 A2994 RMK AO2 SLP138 60009
                 T02390239 10300 20239 53016 =
2018-07-22 19:41 METAR KSMQ 222341Z AUTO 00000KT 8SM OVC014 24/24 A2994 RMK AO2 T02390239 =
2018-07-22 18:53 METAR KSMQ 222253Z AUTO VRB03KT 8SM BKN016 OVC027 24/24 A2993 RMK AO2
                 RAB2158E09B30E41 SLP134 P0003 T02390239 =
2018-07-22 18:26 METAR KSMQ 222226Z AUTO VRB03KT 9SM BKN014 BKN049 24/24 A2992 RMK AO2 RAB2158E09
                 P0003 T02440239 =
2018-07-22 18:14 METAR KSMQ 222214Z AUTO VRB05KT 9SM BKN016 BKN023 OVC043 24/24 A2991 RMK AO2
                 RAB2158E09 P0003 T02440239 =
2018-07-22 18:05 METAR KSMQ 222205Z AUTO VRB04KT 2 1/2SM -RA BR BKN021 BKN040 BKN049 24/24 A2991
                 RMK AO2 RAB2158 P0003 T02440239 =
2018-07-22 17:53 METAR KSMQ 222153Z AUTO 12007G16KT 080V250 9SM BKN021 BKN027 BKN045 26/23 A2990
                 RMK AO2 RAB06E38 SLP123 P0000 T02560233 =
2018-07-22 16:53 METAR KSMQ 222053Z AUTO 11007KT 090V160 10SM SCT030 BKN036 BKN050 29/24 A2989
                 RMK AO2 SLP121 60006 T02890239 55003 =
2018-07-22 15:53 METAR KSMQ 221953Z AUTO 13007KT 080V180 10SM SCT034 SCT055 29/24 A2989 RMK AO2
                 SLP120 T02890239 =
2018-07-22 14:53 METAR KSMQ 221853Z AUTO VRB03KT 10SM BKN033 OVC043 28/24 A2989 RMK AO2 RAB05E31
                 SLP120 P0006 T02830244 =
2018-07-22 14:31 METAR KSMQ 221831Z AUTO VRB05KT 10SM SCT031 BKN045 OVC090 26/24 A2990 RMK AO2
                 RAB05E31 P0006 T02560244 =
2018-07-22 14:24 METAR KSMQ 221824Z AUTO 07004KT 2 1/2SM -RA BR SCT035 BKN046 OVC090 26/23 A2989
                 RMK AO2 RAB05 P0006 T02560233 =
2018-07-22 13:53 METAR KSMQ 221753Z AUTO 00000KT 10SM BKN034 OVC041 28/23 A2990 RMK AO2 SLP125
                 60002 T02780228 10283 20217 50004 =
2018-07-22 12:53 METAR KSMQ 221653Z AUTO VRB05KT 10SM FEW034 BKN045 27/22 A2991 RMK AO2 SLP126
                 T02720222 =
2018-07-22 12:29 METAR KSMQ 221629Z AUTO 17007KT 10SM FEW029 SCT060 27/22 A2991 RMK AO2 T02720222
                 =
2018-07-22 12:22 METAR KSMQ 221622Z AUTO VRB03G14KT 10SM BKN027 BKN060 28/23 A2991 RMK AO2
                 T02780228 =
2018-07-22 12:09 METAR KSMQ 221609Z AUTO 15009G15KT 120V180 10SM SCT027 27/22 A2991 RMK AO2
                 T02670222 =
2018-07-22 12:02 METAR KSMQ 221602Z AUTO 18007KT 10SM BKN025 27/22 A2991 RMK AO2 T02670222 =
2018-07-22 11:53 METAR KSMQ 221553Z AUTO 15007KT 10SM SCT023 SCT027 26/22 A2990 RMK AO2 SLP125
                 T02610222 =
2018-07-22 10:53 METAR KSMQ 221453Z AUTO 19006KT 10SM BKN018 OVC023 24/22 A2989 RMK AO2 SLP121
                 60002 T02390217 53019 =
2018-07-22 10:40 METAR KSMQ 221440Z AUTO 18006KT 10SM BKN016 OVC023 23/22 A2989 RMK AO2 T02330222
                 =
2018-07-22 10:25 METAR KSMQ 221425Z AUTO 17006KT 10SM BKN014 OVC021 23/22 A2988 RMK AO2 T02330222
                 =
2018-07-22 09:53 METAR KSMQ 221353Z AUTO 15005KT 9SM FEW009 BKN019 OVC030 23/23 A2986 RMK AO2
                 RAB10E42 SLP110 P0002 T02330228 =
2018-07-22 09:51 METAR KSMQ 221351Z AUTO 16006KT 9SM FEW009 BKN019 OVC030 23/23 A2986 RMK AO2
                 RAB10E42 P0002 =
2018-07-22 09:41 METAR KSMQ 221341Z AUTO 17006KT 4SM -RA BR FEW007 BKN011 OVC019 22/22 A2986 RMK
                 AO2 RAB10 P0002 T02220222 =
2018-07-22 09:27 METAR KSMQ 221327Z AUTO 18005KT 2SM -RA BR BKN009 OVC014 22/22 A2985 RMK AO2
                 RAB10 P0001 T02220222 =
2018-07-22 09:11 METAR KSMQ 221311Z AUTO 16007KT 1 3/4SM -RA BR BKN010 OVC014 22/22 A2985 RMK AO2
                 RAB10 P0001 T02220222 =
2018-07-22 08:53 METAR KSMQ 221253Z AUTO 16005KT 3SM BR OVC010 22/22 A2984 RMK AO2 RAB13E31
                 SLP102 P0000 T02220222 =
2018-07-22 07:53 METAR KSMQ 221153Z AUTO VRB06KT 8SM OVC011 22/22 A2981 RMK AO2 CIG 008V015
                 SLP093 60014 70106 T02170217 10228 20217 51025 =
2018-07-22 07:48 METAR KSMQ 221148Z AUTO 15006KT 7SM OVC009 22/22 A2981 RMK AO2 CIG 008V013 =

Support USWX by starting your Amazon purchase here.